sensor_id;sensor_type;location;lat;lon;timestamp;pressure;altitude;pressure_sealevel;temperature;humidity
72110;BME280;59983;52.010;5.420;2023-12-07T00:01:59;101900.88;;;18.74;54.87
72110;BME280;59983;52.010;5.420;2023-12-07T00:04:25;101893.78;;;18.73;54.74
72110;BME280;59983;52.010;5.420;2023-12-07T00:06:52;101897.69;;;18.72;54.86
72110;BME280;59983;52.010;5.420;2023-12-07T00:09:19;101896.13;;;18.71;54.81
72110;BME280;59983;52.010;5.420;2023-12-07T00:11:45;101899.25;;;18.69;54.71
72110;BME280;59983;52.010;5.420;2023-12-07T00:14:12;101888.63;;;18.67;54.71
72110;BME280;59983;52.010;5.420;2023-12-07T00:16:38;101906.28;;;18.66;54.78
72110;BME280;59983;52.010;5.420;2023-12-07T00:19:05;101894.84;;;18.64;54.78
72110;BME280;59983;52.010;5.420;2023-12-07T00:21:31;101901.50;;;18.63;54.80
72110;BME280;59983;52.010;5.420;2023-12-07T00:23:58;101885.78;;;18.64;54.65
72110;BME280;59983;52.010;5.420;2023-12-07T00:26:24;101885.75;;;18.60;54.67
72110;BME280;59983;52.010;5.420;2023-12-07T00:28:51;101895.59;;;18.61;54.65
72110;BME280;59983;52.010;5.420;2023-12-07T00:31:17;101886.94;;;18.59;54.57
72110;BME280;59983;52.010;5.420;2023-12-07T00:33:44;101883.41;;;18.59;54.58
72110;BME280;59983;52.010;5.420;2023-12-07T00:36:12;101885.34;;;18.58;54.67
72110;BME280;59983;52.010;5.420;2023-12-07T00:38:39;101878.66;;;18.56;54.64
72110;BME280;59983;52.010;5.420;2023-12-07T00:41:05;101880.63;;;18.55;54.52
72110;BME280;59983;52.010;5.420;2023-12-07T00:43:32;101882.19;;;18.56;54.46
72110;BME280;59983;52.010;5.420;2023-12-07T00:45:59;101885.28;;;18.55;54.61
72110;BME280;59983;52.010;5.420;2023-12-07T00:48:26;101880.97;;;18.54;54.66
72110;BME280;59983;52.010;5.420;2023-12-07T00:50:52;101889.59;;;18.52;54.45
72110;BME280;59983;52.010;5.420;2023-12-07T00:53:19;101883.31;;;18.52;54.45
72110;BME280;59983;52.010;5.420;2023-12-07T00:55:46;101884.47;;;18.51;54.55
72110;BME280;59983;52.010;5.420;2023-12-07T00:58:12;101890.34;;;18.49;54.58
72110;BME280;59983;52.010;5.420;2023-12-07T01:00:40;101892.31;;;18.49;54.50
72110;BME280;59983;52.010;5.420;2023-12-07T01:03:06;101884.44;;;18.47;54.51
72110;BME280;59983;52.010;5.420;2023-12-07T01:05:33;101882.81;;;18.46;54.34
72110;BME280;59983;52.010;5.420;2023-12-07T01:08:00;101878.50;;;18.45;54.36
72110;BME280;59983;52.010;5.420;2023-12-07T01:10:26;101878.88;;;18.44;54.46
72110;BME280;59983;52.010;5.420;2023-12-07T01:12:53;101884.75;;;18.42;54.39
72110;BME280;59983;52.010;5.420;2023-12-07T01:15:20;101887.50;;;18.42;54.49
72110;BME280;59983;52.010;5.420;2023-12-07T01:17:46;101882.38;;;18.40;54.55
72110;BME280;59983;52.010;5.420;2023-12-07T01:20:13;101879.63;;;18.40;54.44
72110;BME280;59983;52.010;5.420;2023-12-07T01:22:40;101878.06;;;18.39;54.45
72110;BME280;59983;52.010;5.420;2023-12-07T01:25:08;101885.50;;;18.39;54.33
72110;BME280;59983;52.010;5.420;2023-12-07T01:27:34;101883.94;;;18.38;54.32
72110;BME280;59983;52.010;5.420;2023-12-07T01:30:01;101881.53;;;18.36;54.31
72110;BME280;59983;52.010;5.420;2023-12-07T01:32:28;101885.44;;;18.35;54.44
72110;BME280;59983;52.010;5.420;2023-12-07T01:34:54;101881.50;;;18.33;54.28
72110;BME280;59983;52.010;5.420;2023-12-07T01:37:21;101890.53;;;18.33;54.27
72110;BME280;59983;52.010;5.420;2023-12-07T01:39:48;101897.97;;;18.33;54.35
72110;BME280;59983;52.010;5.420;2023-12-07T01:42:15;101892.84;;;18.31;54.44
72110;BME280;59983;52.010;5.420;2023-12-07T01:44:41;101898.34;;;18.31;54.49
72110;BME280;59983;52.010;5.420;2023-12-07T01:47:08;101892.78;;;18.28;54.26
72110;BME280;59983;52.010;5.420;2023-12-07T01:49:37;101899.06;;;18.28;54.41
72110;BME280;59983;52.010;5.420;2023-12-07T01:52:05;101900.69;;;18.29;54.32
72110;BME280;59983;52.010;5.420;2023-12-07T01:54:32;101898.28;;;18.28;54.45
72110;BME280;59983;52.010;5.420;2023-12-07T01:56:59;101890.03;;;18.28;54.24
72110;BME280;59983;52.010;5.420;2023-12-07T01:59:26;101896.72;;;18.27;54.38
72110;BME280;59983;52.010;5.420;2023-12-07T02:01:53;101898.66;;;18.26;54.42
72110;BME280;59983;52.010;5.420;2023-12-07T02:04:19;101901.00;;;18.24;54.42
72110;BME280;59983;52.010;5.420;2023-12-07T02:06:46;101898.63;;;18.23;54.43
72110;BME280;59983;52.010;5.420;2023-12-07T02:09:13;101900.22;;;18.24;54.44
72110;BME280;59983;52.010;5.420;2023-12-07T02:11:39;101892.72;;;18.21;54.33
72110;BME280;59983;52.010;5.420;2023-12-07T02:14:06;101899.00;;;18.21;54.46
72110;BME280;59983;52.010;5.420;2023-12-07T02:16:39;101897.41;;;18.20;54.52
72110;BME280;59983;52.010;5.420;2023-12-07T02:21:53;101896.19;;;18.18;54.39
72110;BME280;59983;52.010;5.420;2023-12-07T02:24:25;101900.88;;;18.17;54.78
72110;BME280;59983;52.010;5.420;2023-12-07T02:26:53;101896.56;;;18.16;54.28
72110;BME280;59983;52.010;5.420;2023-12-07T02:29:20;101889.50;;;18.15;54.62
72110;BME280;59983;52.010;5.420;2023-12-07T02:31:46;101889.50;;;18.15;54.54
72110;BME280;59983;52.010;5.420;2023-12-07T02:34:13;101893.41;;;18.14;54.37
72110;BME280;59983;52.010;5.420;2023-12-07T02:36:41;101893.78;;;18.13;54.34
72110;BME280;59983;52.010;5.420;2023-12-07T02:39:10;101903.19;;;18.11;54.18
72110;BME280;59983;52.010;5.420;2023-12-07T02:41:39;101900.78;;;18.10;54.46
72110;BME280;59983;52.010;5.420;2023-12-07T02:44:07;101902.75;;;18.09;54.35
72110;BME280;59983;52.010;5.420;2023-12-07T02:46:34;101898.03;;;18.10;54.44
72110;BME280;59983;52.010;5.420;2023-12-07T02:49:00;101896.47;;;18.09;54.28
72110;BME280;59983;52.010;5.420;2023-12-07T02:51:27;101889.38;;;18.08;54.31
72110;BME280;59983;52.010;5.420;2023-12-07T02:53:54;101887.81;;;18.07;54.34
72110;BME280;59983;52.010;5.420;2023-12-07T02:56:20;101885.44;;;18.05;54.29
72110;BME280;59983;52.010;5.420;2023-12-07T02:58:47;101888.19;;;18.05;54.66
72110;BME280;59983;52.010;5.420;2023-12-07T03:01:13;101880.72;;;18.06;54.48
72110;BME280;59983;52.010;5.420;2023-12-07T03:03:40;101878.75;;;18.03;54.26
72110;BME280;59983;52.010;5.420;2023-12-07T03:06:08;101884.22;;;18.03;54.40
72110;BME280;59983;52.010;5.420;2023-12-07T03:08:35;101890.50;;;18.03;54.24
72110;BME280;59983;52.010;5.420;2023-12-07T03:11:01;101880.25;;;18.00;54.58
72110;BME280;59983;52.010;5.420;2023-12-07T03:13:28;101886.91;;;17.99;54.20
72110;BME280;59983;52.010;5.420;2023-12-07T03:15:54;101891.97;;;17.97;54.33
72110;BME280;59983;52.010;5.420;2023-12-07T03:18:21;101889.22;;;17.97;54.56
72110;BME280;59983;52.010;5.420;2023-12-07T03:20:48;101891.97;;;17.97;54.38
72110;BME280;59983;52.010;5.420;2023-12-07T03:23:16;101893.94;;;17.97;54.87
72110;BME280;59983;52.010;5.420;2023-12-07T03:25:43;101895.09;;;17.96;54.53
72110;BME280;59983;52.010;5.420;2023-12-07T03:28:09;101902.53;;;17.95;54.40
72110;BME280;59983;52.010;5.420;2023-12-07T03:30:36;101903.72;;;17.94;54.32
72110;BME280;59983;52.010;5.420;2023-12-07T03:33:02;101897.44;;;17.94;54.31
72110;BME280;59983;52.010;5.420;2023-12-07T03:35:29;101896.59;;;17.93;54.70
72110;BME280;59983;52.010;5.420;2023-12-07T03:37:56;101910.72;;;17.92;54.29
72110;BME280;59983;52.010;5.420;2023-12-07T03:40:22;101907.16;;;17.91;54.42
72110;BME280;59983;52.010;5.420;2023-12-07T03:42:49;101910.72;;;17.92;54.75
72110;BME280;59983;52.010;5.420;2023-12-07T03:45:22;101915.00;;;17.89;54.37
72110;BME280;59983;52.010;5.420;2023-12-07T03:47:49;101906.34;;;17.87;54.63
72110;BME280;59983;52.010;5.420;2023-12-07T03:50:16;101913.41;;;17.88;54.56
72110;BME280;59983;52.010;5.420;2023-12-07T03:52:42;101905.53;;;17.87;54.57
72110;BME280;59983;52.010;5.420;2023-12-07T03:55:09;101912.19;;;17.86;54.57
72110;BME280;59983;52.010;5.420;2023-12-07T03:57:37;101910.63;;;17.85;54.33
72110;BME280;59983;52.010;5.420;2023-12-07T04:00:05;101910.97;;;17.83;54.37
72110;BME280;59983;52.010;5.420;2023-12-07T04:02:34;101909.38;;;17.82;54.58
72110;BME280;59983;52.010;5.420;2023-12-07T04:05:01;101909.38;;;17.82;54.54
72110;BME280;59983;52.010;5.420;2023-12-07T04:07:28;101911.72;;;17.80;54.37
72110;BME280;59983;52.010;5.420;2023-12-07T04:09:58;101908.97;;;17.80;54.34
72110;BME280;59983;52.010;5.420;2023-12-07T04:12:25;101910.91;;;17.79;54.49
72110;BME280;59983;52.010;5.420;2023-12-07T04:14:52;101921.09;;;17.79;54.38
72110;BME280;59983;52.010;5.420;2023-12-07T04:17:18;101920.31;;;17.78;54.16
72110;BME280;59983;52.010;5.420;2023-12-07T04:19:45;101909.72;;;17.77;54.19
72110;BME280;59983;52.010;5.420;2023-12-07T04:22:11;101917.94;;;17.77;54.33
72110;BME280;59983;52.010;5.420;2023-12-07T04:24:38;101910.88;;;17.76;54.12
72110;BME280;59983;52.010;5.420;2023-12-07T04:27:05;101908.47;;;17.74;54.19
72110;BME280;59983;52.010;5.420;2023-12-07T04:29:31;101907.31;;;17.75;54.17
72110;BME280;59983;52.010;5.420;2023-12-07T04:31:58;101910.06;;;17.75;54.20
72110;BME280;59983;52.010;5.420;2023-12-07T04:34:24;101915.91;;;17.74;54.15
72110;BME280;59983;52.010;5.420;2023-12-07T04:36:51;101910.44;;;17.74;54.10
72110;BME280;59983;52.010;5.420;2023-12-07T04:39:17;101910.44;;;17.74;54.30
72110;BME280;59983;52.010;5.420;2023-12-07T04:41:44;101905.31;;;17.72;54.04
72110;BME280;59983;52.010;5.420;2023-12-07T04:44:11;101905.69;;;17.71;53.96
72110;BME280;59983;52.010;5.420;2023-12-07T04:46:37;101911.16;;;17.71;54.04
72110;BME280;59983;52.010;5.420;2023-12-07T04:49:04;101913.53;;;17.72;53.72
72110;BME280;59983;52.010;5.420;2023-12-07T04:51:31;101918.25;;;17.72;53.83
72110;BME280;59983;52.010;5.420;2023-12-07T04:53:57;101917.06;;;17.73;53.94
72110;BME280;59983;52.010;5.420;2023-12-07T04:56:39;101913.53;;;17.72;53.95
72110;BME280;59983;52.010;5.420;2023-12-07T04:59:06;101904.16;;;17.73;53.92
72110;BME280;59983;52.010;5.420;2023-12-07T05:01:32;101899.44;;;17.74;53.71
72110;BME280;59983;52.010;5.420;2023-12-07T05:03:59;101903.78;;;17.75;53.75
72110;BME280;59983;52.010;5.420;2023-12-07T05:06:26;101903.44;;;17.76;53.85
72110;BME280;59983;52.010;5.420;2023-12-07T05:08:52;101908.91;;;17.76;53.74
72110;BME280;59983;52.010;5.420;2023-12-07T05:11:19;101903.84;;;17.78;53.71
72110;BME280;59983;52.010;5.420;2023-12-07T05:13:45;101902.69;;;17.79;53.72
72110;BME280;59983;52.010;5.420;2023-12-07T05:16:12;101903.47;;;17.80;53.76
72110;BME280;59983;52.010;5.420;2023-12-07T05:18:38;101888.97;;;17.79;53.70
72110;BME280;59983;52.010;5.420;2023-12-07T05:21:05;101894.88;;;17.81;53.64
72110;BME280;59983;52.010;5.420;2023-12-07T05:23:32;101889.00;;;17.83;53.71
72110;BME280;59983;52.010;5.420;2023-12-07T05:26:04;101893.34;;;17.84;53.58
72110;BME280;59983;52.010;5.420;2023-12-07T05:28:30;101894.56;;;17.87;53.77
72110;BME280;59983;52.010;5.420;2023-12-07T05:30:57;101896.53;;;17.86;53.60
72110;BME280;59983;52.010;5.420;2023-12-07T05:33:24;101909.88;;;17.88;53.64
72110;BME280;59983;52.010;5.420;2023-12-07T05:35:51;101910.28;;;17.90;53.56
72110;BME280;59983;52.010;5.420;2023-12-07T05:38:17;101905.97;;;17.89;53.52
72110;BME280;59983;52.010;5.420;2023-12-07T05:40:44;101905.59;;;17.90;53.56
72110;BME280;59983;52.010;5.420;2023-12-07T05:43:11;101895.78;;;17.89;53.47
72110;BME280;59983;52.010;5.420;2023-12-07T05:45:37;101899.34;;;17.93;53.36
72110;BME280;59983;52.010;5.420;2023-12-07T05:48:04;101885.63;;;17.93;53.71
72110;BME280;59983;52.010;5.420;2023-12-07T05:50:31;101888.03;;;17.95;53.78
72110;BME280;59983;52.010;5.420;2023-12-07T05:52:57;101890.41;;;17.96;53.90
72110;BME280;59983;52.010;5.420;2023-12-07T05:55:26;101877.47;;;17.97;53.91
72110;BME280;59983;52.010;5.420;2023-12-07T05:57:52;101888.84;;;17.99;54.35
72110;BME280;59983;52.010;5.420;2023-12-07T06:00:21;101888.09;;;18.02;54.81
72110;BME280;59983;52.010;5.420;2023-12-07T06:02:47;101890.84;;;18.02;55.11
72110;BME280;59983;52.010;5.420;2023-12-07T06:05:14;101896.78;;;18.04;55.23
72110;BME280;59983;52.010;5.420;2023-12-07T06:07:41;101895.25;;;18.06;55.21
72110;BME280;59983;52.010;5.420;2023-12-07T06:10:08;101901.56;;;18.10;55.08
72110;BME280;59983;52.010;5.420;2023-12-07T06:12:35;101902.06;;;18.16;55.15
72110;BME280;59983;52.010;5.420;2023-12-07T06:15:02;101901.31;;;18.19;55.25
72110;BME280;59983;52.010;5.420;2023-12-07T06:17:30;101912.41;;;18.26;55.17
72110;BME280;59983;52.010;5.420;2023-12-07T06:19:56;101920.31;;;18.31;55.04
72110;BME280;59983;52.010;5.420;2023-12-07T06:22:23;101908.22;;;18.36;54.66
72110;BME280;59983;52.010;5.420;2023-12-07T06:24:50;101913.38;;;18.41;54.86
72110;BME280;59983;52.010;5.420;2023-12-07T06:27:16;101913.50;;;18.48;54.65
72110;BME280;59983;52.010;5.420;2023-12-07T06:29:44;101908.81;;;18.52;54.68
72110;BME280;59983;52.010;5.420;2023-12-07T06:32:11;101910.84;;;18.55;54.52
72110;BME280;59983;52.010;5.420;2023-12-07T06:34:40;101919.16;;;18.62;54.63
72110;BME280;59983;52.010;5.420;2023-12-07T06:37:07;101913.38;;;18.67;54.41
72110;BME280;59983;52.010;5.420;2023-12-07T06:39:34;101918.16;;;18.74;54.40
72110;BME280;59983;52.010;5.420;2023-12-07T06:42:00;101915.47;;;18.81;54.15
72110;BME280;59983;52.010;5.420;2023-12-07T06:44:27;101913.19;;;18.87;53.89
72110;BME280;59983;52.010;5.420;2023-12-07T06:46:53;101910.91;;;18.92;53.64
72110;BME280;59983;52.010;5.420;2023-12-07T06:49:20;101908.59;;;18.98;53.48
72110;BME280;59983;52.010;5.420;2023-12-07T06:51:47;101916.53;;;19.03;53.42
72110;BME280;59983;52.010;5.420;2023-12-07T06:54:13;101910.69;;;19.08;53.29
72110;BME280;59983;52.010;5.420;2023-12-07T06:56:40;101910.75;;;19.15;53.14
72110;BME280;59983;52.010;5.420;2023-12-07T06:59:07;101913.19;;;19.20;53.04
72110;BME280;59983;52.010;5.420;2023-12-07T07:01:33;101914.44;;;19.27;53.03
72110;BME280;59983;52.010;5.420;2023-12-07T07:04:00;101914.44;;;19.30;52.94
72110;BME280;59983;52.010;5.420;2023-12-07T07:06:27;101913.31;;;19.35;52.72
72110;BME280;59983;52.010;5.420;2023-12-07T07:08:53;101914.94;;;19.39;52.67
72110;BME280;59983;52.010;5.420;2023-12-07T07:11:22;101907.88;;;19.42;52.52
72110;BME280;59983;52.010;5.420;2023-12-07T07:13:49;101901.63;;;19.45;52.34
72110;BME280;59983;52.010;5.420;2023-12-07T07:16:15;101905.56;;;19.47;52.33
72110;BME280;59983;52.010;5.420;2023-12-07T07:18:42;101917.78;;;19.50;52.23
72110;BME280;59983;52.010;5.420;2023-12-07T07:21:08;101911.09;;;19.51;52.27
72110;BME280;59983;52.010;5.420;2023-12-07T07:23:35;101912.72;;;19.56;52.25
72110;BME280;59983;52.010;5.420;2023-12-07T07:26:02;101908.09;;;19.63;52.19
72110;BME280;59983;52.010;5.420;2023-12-07T07:28:29;101903.06;;;19.72;52.18
72110;BME280;59983;52.010;5.420;2023-12-07T07:30:56;101910.94;;;19.77;52.41
72110;BME280;59983;52.010;5.420;2023-12-07T07:33:22;101902.28;;;19.75;52.18
72110;BME280;59983;52.010;5.420;2023-12-07T07:35:49;101909.78;;;19.78;52.19
72110;BME280;59983;52.010;5.420;2023-12-07T07:38:18;101906.63;;;19.76;52.34
72110;BME280;59983;52.010;5.420;2023-12-07T07:40:45;101910.53;;;19.75;52.47
72110;BME280;59983;52.010;5.420;2023-12-07T07:43:13;101911.69;;;19.71;52.48
72110;BME280;59983;52.010;5.420;2023-12-07T07:45:40;101917.22;;;19.71;52.72
72110;BME280;59983;52.010;5.420;2023-12-07T07:48:07;101911.66;;;19.67;52.61
72110;BME280;59983;52.010;5.420;2023-12-07T07:50:33;101922.66;;;19.67;52.93
72110;BME280;59983;52.010;5.420;2023-12-07T07:53:02;101926.19;;;19.64;52.93
72110;BME280;59983;52.010;5.420;2023-12-07T07:55:30;101926.94;;;19.61;52.93
72110;BME280;59983;52.010;5.420;2023-12-07T07:57:57;101931.66;;;19.61;53.33
72110;BME280;59983;52.010;5.420;2023-12-07T08:00:24;101929.66;;;19.58;53.35
72110;BME280;59983;52.010;5.420;2023-12-07T08:02:55;101933.16;;;19.55;53.50
72110;BME280;59983;52.010;5.420;2023-12-07T08:05:22;101929.63;;;19.54;53.59
72110;BME280;59983;52.010;5.420;2023-12-07T08:07:48;101926.06;;;19.53;53.37
72110;BME280;59983;52.010;5.420;2023-12-07T08:10:15;101923.69;;;19.52;53.48
72110;BME280;59983;52.010;5.420;2023-12-07T08:12:41;101916.59;;;19.51;53.67
72110;BME280;59983;52.010;5.420;2023-12-07T08:15:09;101926.03;;;19.50;53.76
72110;BME280;59983;52.010;5.420;2023-12-07T08:17:39;101918.16;;;19.48;53.49
72110;BME280;59983;52.010;5.420;2023-12-07T08:20:08;101911.06;;;19.47;53.84
72110;BME280;59983;52.010;5.420;2023-12-07T08:22:37;101928.34;;;19.44;53.81
72110;BME280;59983;52.010;5.420;2023-12-07T08:25:04;101915.34;;;19.41;53.90
72110;BME280;59983;52.010;5.420;2023-12-07T08:27:38;101916.91;;;19.42;53.71
72110;BME280;59983;52.010;5.420;2023-12-07T08:30:06;101916.91;;;19.42;53.73
72110;BME280;59983;52.010;5.420;2023-12-07T08:32:32;101909.03;;;19.41;54.18
72110;BME280;59983;52.010;5.420;2023-12-07T08:34:59;101908.25;;;19.40;54.12
72110;BME280;59983;52.010;5.420;2023-12-07T08:37:26;101918.47;;;19.40;54.07
72110;BME280;59983;52.010;5.420;2023-12-07T08:39:53;101918.84;;;19.38;54.22
72110;BME280;59983;52.010;5.420;2023-12-07T08:42:19;101924.34;;;19.38;54.25
72110;BME280;59983;52.010;5.420;2023-12-07T08:44:46;101920.41;;;19.36;54.25
72110;BME280;59983;52.010;5.420;2023-12-07T08:47:12;101922.38;;;19.35;54.27
72110;BME280;59983;52.010;5.420;2023-12-07T08:49:39;101922.38;;;19.35;54.03
72110;BME280;59983;52.010;5.420;2023-12-07T08:52:06;101916.81;;;19.32;53.67
72110;BME280;59983;52.010;5.420;2023-12-07T08:54:52;101914.84;;;19.29;53.91
72110;BME280;59983;52.010;5.420;2023-12-07T08:57:19;101918.75;;;19.28;53.63
72110;BME280;59983;52.010;5.420;2023-12-07T08:59:45;101921.06;;;19.25;53.88
72110;BME280;59983;52.010;5.420;2023-12-07T09:02:12;101909.66;;;19.23;53.89
72110;BME280;59983;52.010;5.420;2023-12-07T09:04:39;101903.75;;;19.21;53.88
72110;BME280;59983;52.010;5.420;2023-12-07T09:07:06;101909.22;;;19.18;53.73
72110;BME280;59983;52.010;5.420;2023-12-07T09:09:32;101908.44;;;19.17;53.87
72110;BME280;59983;52.010;5.420;2023-12-07T09:11:59;101915.47;;;19.15;53.87
72110;BME280;59983;52.010;5.420;2023-12-07T09:14:25;101912.31;;;19.13;54.09
72110;BME280;59983;52.010;5.420;2023-12-07T09:16:53;101901.69;;;19.11;53.29
72110;BME280;59983;52.010;5.420;2023-12-07T09:19:21;101903.25;;;19.09;53.16
72110;BME280;59983;52.010;5.420;2023-12-07T09:21:47;101904.38;;;19.08;53.13
72110;BME280;59983;52.010;5.420;2023-12-07T09:24:14;101908.69;;;19.05;53.21
72110;BME280;59983;52.010;5.420;2023-12-07T09:26:40;101901.19;;;19.02;52.98
72110;BME280;59983;52.010;5.420;2023-12-07T09:29:07;101905.13;;;19.01;53.03
72110;BME280;59983;52.010;5.420;2023-12-07T09:31:35;101901.59;;;19.01;52.96
72110;BME280;59983;52.010;5.420;2023-12-07T09:34:01;101901.16;;;18.99;52.90
72110;BME280;59983;52.010;5.420;2023-12-07T09:36:38;101914.09;;;18.98;53.14
72110;BME280;59983;52.010;5.420;2023-12-07T09:39:05;101915.66;;;18.95;53.09
72110;BME280;59983;52.010;5.420;2023-12-07T09:41:32;101924.69;;;18.96;53.06
72110;BME280;59983;52.010;5.420;2023-12-07T09:43:59;101916.81;;;18.94;53.25
72110;BME280;59983;52.010;5.420;2023-12-07T09:46:28;101920.75;;;18.93;53.36
72110;BME280;59983;52.010;5.420;2023-12-07T09:48:55;101905.81;;;18.91;53.23
72110;BME280;59983;52.010;5.420;2023-12-07T09:51:22;101903.84;;;18.91;53.30
72110;BME280;59983;52.010;5.420;2023-12-07T09:53:52;101901.44;;;18.90;53.43
72110;BME280;59983;52.010;5.420;2023-12-07T09:56:20;101894.75;;;18.87;53.18
72110;BME280;59983;52.010;5.420;2023-12-07T09:58:47;101882.56;;;18.85;53.12
72110;BME280;59983;52.010;5.420;2023-12-07T10:01:13;101884.91;;;18.86;53.17
72110;BME280;59983;52.010;5.420;2023-12-07T10:03:41;101877.84;;;18.85;53.16
72110;BME280;59983;52.010;5.420;2023-12-07T10:06:09;101877.84;;;18.85;53.13
72110;BME280;59983;52.010;5.420;2023-12-07T10:08:36;101869.97;;;18.84;53.17
72110;BME280;59983;52.010;5.420;2023-12-07T10:11:03;101866.00;;;18.81;53.18
72110;BME280;59983;52.010;5.420;2023-12-07T10:13:33;101866.38;;;18.80;53.29
72110;BME280;59983;52.010;5.420;2023-12-07T10:16:14;101866.75;;;18.78;53.20
72110;BME280;59983;52.010;5.420;2023-12-07T10:18:43;101871.47;;;18.78;53.24
72110;BME280;59983;52.010;5.420;2023-12-07T10:21:12;101849.06;;;18.76;53.43
72110;BME280;59983;52.010;5.420;2023-12-07T10:23:41;101858.09;;;18.76;53.48
72110;BME280;59983;52.010;5.420;2023-12-07T10:26:10;101842.78;;;18.75;53.46
72110;BME280;59983;52.010;5.420;2023-12-07T10:28:37;101839.63;;;18.73;53.46
72110;BME280;59983;52.010;5.420;2023-12-07T10:31:08;101845.91;;;18.74;53.59
72110;BME280;59983;52.010;5.420;2023-12-07T10:33:35;101838.03;;;18.72;53.50
72110;BME280;59983;52.010;5.420;2023-12-07T10:36:03;101839.97;;;18.72;53.62
72110;BME280;59983;52.010;5.420;2023-12-07T10:38:29;101836.03;;;18.69;53.71
72110;BME280;59983;52.010;5.420;2023-12-07T10:41:05;101833.28;;;18.69;53.76
72110;BME280;59983;52.010;5.420;2023-12-07T10:43:42;101829.75;;;18.68;53.54
72110;BME280;59983;52.010;5.420;2023-12-07T10:46:14;101819.53;;;18.69;53.85
72110;BME280;59983;52.010;5.420;2023-12-07T10:48:45;101819.91;;;18.67;53.50
72110;BME280;59983;52.010;5.420;2023-12-07T10:51:22;101806.19;;;18.67;53.45
72110;BME280;59983;52.010;5.420;2023-12-07T10:53:51;101804.59;;;18.66;53.61
72110;BME280;59983;52.010;5.420;2023-12-07T10:56:28;101806.19;;;18.67;54.02
72110;BME280;59983;52.010;5.420;2023-12-07T10:58:56;101806.19;;;18.67;54.06
72110;BME280;59983;52.010;5.420;2023-12-07T11:01:23;101808.53;;;18.65;53.75
72110;BME280;59983;52.010;5.420;2023-12-07T11:03:51;101799.81;;;18.63;53.92
72110;BME280;59983;52.010;5.420;2023-12-07T11:06:19;101795.09;;;18.64;53.75
72110;BME280;59983;52.010;5.420;2023-12-07T11:08:50;101803.72;;;18.62;53.72
72110;BME280;59983;52.010;5.420;2023-12-07T11:13:58;101795.88;;;18.61;53.65
72110;BME280;59983;52.010;5.420;2023-12-07T11:16:35;101791.53;;;18.60;53.76
72110;BME280;59983;52.010;5.420;2023-12-07T11:19:03;101781.34;;;18.60;53.84
72110;BME280;59983;52.010;5.420;2023-12-07T11:21:34;101775.44;;;18.58;53.67
72110;BME280;59983;52.010;5.420;2023-12-07T11:24:01;101768.75;;;18.59;53.91
72110;BME280;59983;52.010;5.420;2023-12-07T11:26:30;101765.22;;;18.59;54.10
72110;BME280;59983;52.010;5.420;2023-12-07T11:28:57;101755.03;;;18.59;54.07
72110;BME280;59983;52.010;5.420;2023-12-07T11:31:27;101746.00;;;18.59;54.23
72110;BME280;59983;52.010;5.420;2023-12-07T11:33:53;101740.13;;;18.60;54.23
72110;BME280;59983;52.010;5.420;2023-12-07T11:36:20;101736.19;;;18.61;54.44
72110;BME280;59983;52.010;5.420;2023-12-07T11:41:50;101730.78;;;18.65;54.57
72110;BME280;59983;52.010;5.420;2023-12-07T11:44:17;101731.97;;;18.67;54.65
72110;BME280;59983;52.010;5.420;2023-12-07T11:46:44;101730.81;;;18.68;54.75
72110;BME280;59983;52.010;5.420;2023-12-07T11:49:11;101729.63;;;18.70;54.89
72110;BME280;59983;52.010;5.420;2023-12-07T11:51:54;101728.84;;;18.69;54.99
72110;BME280;59983;52.010;5.420;2023-12-07T11:54:22;101727.66;;;18.70;55.01
72110;BME280;59983;52.010;5.420;2023-12-07T11:56:55;101724.94;;;18.70;55.34
72110;BME280;59983;52.010;5.420;2023-12-07T11:59:22;101721.00;;;18.71;55.41
72110;BME280;59983;52.010;5.420;2023-12-07T12:02:00;101719.81;;;18.72;55.17
72110;BME280;59983;52.010;5.420;2023-12-07T12:04:29;101713.19;;;18.73;55.60
72110;BME280;59983;52.010;5.420;2023-12-07T12:06:56;101703.34;;;18.72;55.51
72110;BME280;59983;52.010;5.420;2023-12-07T12:09:25;101702.59;;;18.75;55.77
72110;BME280;59983;52.010;5.420;2023-12-07T12:11:58;101692.41;;;18.76;55.79
72110;BME280;59983;52.010;5.420;2023-12-07T12:14:27;101686.09;;;18.75;55.46
72110;BME280;59983;52.010;5.420;2023-12-07T12:16:54;101691.59;;;18.75;55.49
72110;BME280;59983;52.010;5.420;2023-12-07T12:19:22;101679.44;;;18.76;55.58
72110;BME280;59983;52.010;5.420;2023-12-07T12:22:01;101668.06;;;18.78;55.50
72110;BME280;59983;52.010;5.420;2023-12-07T12:24:32;101675.13;;;18.79;55.71
72110;BME280;59983;52.010;5.420;2023-12-07T12:26:59;101671.97;;;18.77;55.59
72110;BME280;59983;52.010;5.420;2023-12-07T12:29:26;101666.09;;;18.78;55.66
72110;BME280;59983;52.010;5.420;2023-12-07T12:32:01;101662.56;;;18.78;55.69
72110;BME280;59983;52.010;5.420;2023-12-07T12:34:28;101651.97;;;18.80;55.63
72110;BME280;59983;52.010;5.420;2023-12-07T12:36:56;101649.59;;;18.78;55.77
72110;BME280;59983;52.010;5.420;2023-12-07T12:39:27;101658.63;;;18.79;55.92
72110;BME280;59983;52.010;5.420;2023-12-07T12:41:59;101650.38;;;18.79;55.69
72110;BME280;59983;52.010;5.420;2023-12-07T12:44:27;101646.84;;;18.78;55.47
72110;BME280;59983;52.010;5.420;2023-12-07T12:47:05;101643.31;;;18.78;55.57
72110;BME280;59983;52.010;5.420;2023-12-07T12:49:35;101628.78;;;18.77;55.48
72110;BME280;59983;52.010;5.420;2023-12-07T12:52:03;101626.03;;;18.77;55.63
72110;BME280;59983;52.010;5.420;2023-12-07T12:54:31;101625.63;;;18.75;55.73
72110;BME280;59983;52.010;5.420;2023-12-07T12:57:01;101611.50;;;18.77;55.29
72110;BME280;59983;52.010;5.420;2023-12-07T12:59:28;101602.47;;;18.76;55.29
72110;BME280;59983;52.010;5.420;2023-12-07T13:01:54;101600.50;;;18.77;55.27